Time;durP1;ratioP1;P1;durP2;ratioP2;P2;SDS_P1;SDS_P2;PMS_P1;PMS_P2;Temp;Humidity;BMP_temperature;BMP_pressure;BME280_temperature;BME280_humidity;BME280_pressure;Samples;Min_cycle;Max_cycle;Signal;HPM_P1;HPM_P2
2021/06/26 00:02:13;;;;;;;8.10;7.40;;;23.20;99.90;;;;;;5098227;28;20454;-70
2021/06/26 00:04:40;;;;;;;9.17;8.40;;;23.10;99.90;;;;;;5094281;28;20532;-70
2021/06/26 00:07:07;;;;;;;9.23;8.53;;;23.10;99.90;;;;;;5091441;28;20482;-71
2021/06/26 00:09:35;;;;;;;9.47;8.57;;;23.10;99.90;;;;;;5111939;28;20934;-71
2021/06/26 00:12:01;;;;;;;12.43;8.90;;;23.10;99.90;;;;;;5096564;28;20461;-71
2021/06/26 00:14:29;;;;;;;9.07;8.37;;;23.10;99.90;;;;;;5106923;28;20459;-71
2021/06/26 00:16:55;;;;;;;8.52;7.75;;;23.10;99.90;;;;;;5094759;28;20454;-71
2021/06/26 00:19:22;;;;;;;7.63;7.03;;;23.00;99.90;;;;;;5091602;28;20212;-71
2021/06/26 00:21:49;;;;;;;8.52;7.75;;;23.10;99.90;;;;;;5099974;28;20553;-71
2021/06/26 00:24:16;;;;;;;8.70;8.00;;;23.00;99.90;;;;;;5091847;28;20204;-71
2021/06/26 00:26:44;;;;;;;9.20;8.33;;;23.10;99.90;;;;;;5091886;28;20483;-72
2021/06/26 00:29:10;;;;;;;10.13;9.23;;;23.00;99.90;;;;;;5107803;28;20488;-72
2021/06/26 00:31:37;;;;;;;8.93;8.03;;;23.00;99.90;;;;;;5094570;28;20950;-71
2021/06/26 00:34:04;;;;;;;8.93;8.17;;;23.00;99.90;;;;;;5099786;28;20469;-71
2021/06/26 00:36:30;;;;;;;8.90;8.20;;;23.00;99.90;;;;;;5103715;28;20458;-71
2021/06/26 00:38:57;;;;;;;9.90;7.30;;;23.00;99.90;;;;;;5095697;28;20194;-71
2021/06/26 00:41:24;;;;;;;7.70;7.00;;;23.00;99.90;;;;;;5108981;28;20500;-71
2021/06/26 00:43:52;;;;;;;9.87;9.07;;;23.00;99.90;;;;;;5098621;28;20467;-71
2021/06/26 00:46:19;;;;;;;9.43;8.40;;;23.00;99.90;;;;;;5108070;28;20473;-72
2021/06/26 00:48:45;;;;;;;8.73;8.03;;;22.90;99.90;;;;;;5096144;28;20923;-70
2021/06/26 00:51:12;;;;;;;7.70;7.10;;;22.90;99.90;;;;;;5101500;28;20459;-71
2021/06/26 00:53:39;;;;;;;8.40;7.70;;;22.90;99.90;;;;;;5103872;28;20459;-70
2021/06/26 00:56:08;;;;;;;7.90;7.30;;;22.90;99.90;;;;;;5095248;28;20201;-71
2021/06/26 00:58:35;;;;;;;8.57;7.88;;;22.90;99.90;;;;;;5100049;28;20486;-70
2021/06/26 01:01:03;;;;;;;8.07;7.43;;;22.90;99.90;;;;;;5091660;28;20216;-70
2021/06/26 01:03:29;;;;;;;8.10;7.50;;;22.90;99.90;;;;;;5091357;28;20452;-71
2021/06/26 01:05:56;;;;;;;8.57;7.87;;;22.90;99.90;;;;;;5090226;28;20485;-70
2021/06/26 01:08:25;;;;;;;9.70;8.70;;;22.80;99.90;;;;;;5089992;28;20459;-72
2021/06/26 01:10:52;;;;;;;8.13;7.43;;;22.80;99.90;;;;;;5091100;28;20209;-71
2021/06/26 01:13:18;;;;;;;8.80;8.10;;;22.80;99.90;;;;;;5097789;28;20214;-71
2021/06/26 01:15:45;;;;;;;8.00;7.40;;;22.80;99.90;;;;;;5104727;28;20459;-70
2021/06/26 01:18:15;;;;;;;8.30;7.50;;;22.80;99.90;;;;;;5098410;28;20468;-70
2021/06/26 01:20:41;;;;;;;7.73;7.07;;;22.80;99.90;;;;;;5090945;28;20667;-70
2021/06/26 01:23:12;;;;;;;7.32;6.72;;;22.80;99.90;;;;;;5101883;28;20446;-70
2021/06/26 01:25:39;;;;;;;8.30;7.50;;;22.70;99.90;;;;;;5105102;28;20200;-70
2021/06/26 01:28:06;;;;;;;8.80;8.00;;;22.80;99.90;;;;;;5102861;28;21344;-70
2021/06/26 01:30:35;;;;;;;8.60;7.90;;;22.80;99.90;;;;;;5094760;28;20477;-71
2021/06/26 01:33:02;;;;;;;8.60;7.90;;;22.70;99.90;;;;;;5093016;28;20459;-70
2021/06/26 01:35:29;;;;;;;8.50;7.67;;;22.70;99.90;;;;;;5100150;28;20454;-71
2021/06/26 01:37:57;;;;;;;8.63;7.93;;;22.70;99.90;;;;;;5098657;28;20936;-70
2021/06/26 01:40:27;;;;;;;7.80;6.73;;;22.70;99.90;;;;;;5100235;28;20454;-70
2021/06/26 01:42:55;;;;;;;8.13;7.53;;;22.70;99.90;;;;;;5110993;28;20435;-70
2021/06/26 01:45:24;;;;;;;7.05;6.43;;;22.70;99.90;;;;;;5108756;28;20450;-70
2021/06/26 01:47:53;;;;;;;7.80;7.00;;;22.60;99.90;;;;;;5099749;28;20200;-70
2021/06/26 01:50:22;;;;;;;9.02;8.23;;;22.60;99.90;;;;;;5104973;28;20458;-70
2021/06/26 01:52:49;;;;;;;8.03;7.33;;;22.60;99.90;;;;;;5101883;28;20197;-71
2021/06/26 01:55:18;;;;;;;8.03;7.20;;;22.60;99.90;;;;;;5101773;28;21061;-70
2021/06/26 01:57:47;;;;;;;7.82;7.13;;;22.60;99.90;;;;;;5093665;28;20482;-69
2021/06/26 02:00:15;;;;;;;7.60;6.85;;;22.60;99.90;;;;;;5103911;28;20657;-71
2021/06/26 02:02:42;;;;;;;8.43;7.78;;;22.50;99.90;;;;;;5101547;28;20225;-71
2021/06/26 02:05:11;;;;;;;8.48;7.78;;;22.50;99.90;;;;;;5095252;28;20546;-72
2021/06/26 02:07:38;;;;;;;7.70;7.10;;;22.50;99.90;;;;;;5093382;28;20217;-72
2021/06/26 02:10:06;;;;;;;7.22;6.63;;;22.50;99.90;;;;;;5106040;28;20200;-72
2021/06/26 02:12:33;;;;;;;8.15;7.35;;;22.50;99.90;;;;;;5095964;28;20208;-72
2021/06/26 02:15:01;;;;;;;8.80;8.10;;;22.50;99.90;;;;;;5095875;28;20229;-72
2021/06/26 02:17:28;;;;;;;7.77;7.07;;;22.40;99.90;;;;;;5107621;28;20459;-72
2021/06/26 02:19:54;;;;;;;8.52;7.65;;;22.40;99.90;;;;;;5094277;28;20441;-72
2021/06/26 02:22:21;;;;;;;7.75;7.15;;;22.40;99.90;;;;;;5099247;28;20206;-72
2021/06/26 02:24:48;;;;;;;8.43;7.72;;;22.40;99.90;;;;;;5100863;28;20193;-72
2021/06/26 02:27:15;;;;;;;8.00;7.40;;;22.40;99.90;;;;;;5105332;28;20227;-72
2021/06/26 02:29:41;;;;;;;7.47;6.88;;;22.40;99.90;;;;;;5111533;28;20209;-72
2021/06/26 02:32:10;;;;;;;7.20;6.70;;;22.40;99.90;;;;;;5109213;28;20648;-72
2021/06/26 02:34:37;;;;;;;8.73;7.80;;;22.30;99.90;;;;;;5112513;28;20203;-72
2021/06/26 02:37:04;;;;;;;7.32;6.72;;;22.30;99.90;;;;;;5107005;28;20617;-72
2021/06/26 02:39:31;;;;;;;8.07;7.38;;;22.30;99.90;;;;;;5093210;28;20205;-70
2021/06/26 02:41:57;;;;;;;8.15;7.45;;;22.30;99.90;;;;;;5110822;28;20637;-71
2021/06/26 02:44:24;;;;;;;8.85;7.95;;;22.30;99.90;;;;;;5112271;28;20196;-69
2021/06/26 02:46:51;;;;;;;8.75;7.97;;;22.20;99.90;;;;;;5098578;28;20212;-68
2021/06/26 02:49:19;;;;;;;8.30;7.55;;;22.20;99.90;;;;;;5102070;28;20209;-71
2021/06/26 02:51:46;;;;;;;7.35;6.75;;;22.20;99.90;;;;;;5095006;28;20200;-71
2021/06/26 02:54:13;;;;;;;8.10;7.40;;;22.20;99.90;;;;;;5092855;28;20197;-71
2021/06/26 02:56:40;;;;;;;9.10;8.30;;;22.20;99.90;;;;;;5094626;28;20211;-72
2021/06/26 02:59:06;;;;;;;7.93;7.22;;;22.20;99.90;;;;;;5104198;28;20244;-71
2021/06/26 03:01:33;;;;;;;7.05;6.45;;;22.20;99.90;;;;;;5101934;28;20193;-71
2021/06/26 03:04:00;;;;;;;7.97;7.25;;;22.20;99.90;;;;;;5093705;28;20193;-71
2021/06/26 03:06:28;;;;;;;8.20;7.40;;;22.10;99.90;;;;;;5103446;28;20236;-71
2021/06/26 03:08:55;;;;;;;7.77;7.07;;;22.10;99.90;;;;;;5096690;28;20461;-71
2021/06/26 03:11:21;;;;;;;8.25;7.65;;;22.10;99.90;;;;;;5094659;28;20444;-71
2021/06/26 03:13:48;;;;;;;9.02;8.23;;;22.10;99.90;;;;;;5106379;28;20896;-71
2021/06/26 03:16:15;;;;;;;9.00;8.30;;;22.10;99.90;;;;;;5104979;28;20189;-71
2021/06/26 03:18:43;;;;;;;9.02;7.85;;;22.10;99.90;;;;;;5111090;28;20219;-71
2021/06/26 03:21:10;;;;;;;8.15;7.53;;;22.00;99.90;;;;;;5110369;28;20216;-71
2021/06/26 03:23:39;;;;;;;9.77;8.88;;;22.00;99.90;;;;;;5092091;28;20201;-71
2021/06/26 03:26:06;;;;;;;9.75;8.52;;;22.00;99.90;;;;;;5095705;28;20216;-71
2021/06/26 03:28:33;;;;;;;8.40;7.50;;;22.00;99.90;;;;;;5096191;28;20209;-71
2021/06/26 03:31:00;;;;;;;9.27;8.43;;;22.00;99.90;;;;;;5092621;28;20202;-71
2021/06/26 03:33:27;;;;;;;9.52;8.73;;;22.00;99.90;;;;;;5092667;28;20205;-71
2021/06/26 03:35:54;;;;;;;9.02;8.25;;;21.90;99.90;;;;;;5095714;28;20525;-70
2021/06/26 03:38:21;;;;;;;9.30;8.40;;;22.00;99.90;;;;;;5111536;28;20219;-71
2021/06/26 03:40:50;;;;;;;11.00;9.95;;;21.90;99.90;;;;;;5102601;28;20526;-70
2021/06/26 03:43:17;;;;;;;9.98;9.07;;;21.90;99.90;;;;;;5094896;28;20565;-70
2021/06/26 03:45:44;;;;;;;9.27;8.48;;;21.90;99.90;;;;;;5092248;28;20205;-71
2021/06/26 03:48:10;;;;;;;9.27;8.50;;;21.90;99.90;;;;;;5092522;28;20240;-71
2021/06/26 03:50:39;;;;;;;9.65;8.75;;;21.80;99.90;;;;;;5092152;28;20197;-71
2021/06/26 03:53:06;;;;;;;8.90;8.15;;;21.80;99.90;;;;;;5097947;28;20701;-71
2021/06/26 03:55:32;;;;;;;10.60;9.55;;;21.80;99.90;;;;;;5093782;28;20201;-71
2021/06/26 03:58:00;;;;;;;11.85;10.75;;;21.80;99.90;;;;;;5090917;28;20229;-69
2021/06/26 04:00:27;;;;;;;10.02;9.10;;;21.80;99.90;;;;;;5092800;28;20562;-69
2021/06/26 04:02:54;;;;;;;9.52;8.70;;;21.80;99.90;;;;;;5112898;28;20213;-70
2021/06/26 04:05:20;;;;;;;9.15;8.35;;;21.80;99.90;;;;;;5107056;28;20203;-70
2021/06/26 04:07:47;;;;;;;9.73;8.93;;;21.80;99.90;;;;;;5099319;28;20210;-70
2021/06/26 04:10:14;;;;;;;10.57;9.68;;;21.80;99.90;;;;;;5092036;28;20534;-70
2021/06/26 04:12:41;;;;;;;11.20;9.02;;;21.80;99.90;;;;;;5091818;28;20660;-71
2021/06/26 04:15:10;;;;;;;9.80;8.95;;;21.70;99.90;;;;;;5098159;28;20193;-71
2021/06/26 04:17:37;;;;;;;8.85;8.15;;;21.70;99.90;;;;;;5099831;28;20656;-71
2021/06/26 04:20:05;;;;;;;10.07;9.18;;;21.70;99.90;;;;;;5097596;28;20526;-71
2021/06/26 04:22:32;;;;;;;10.52;9.50;;;21.70;99.90;;;;;;5094187;28;20201;-71
2021/06/26 04:24:59;;;;;;;10.15;9.20;;;21.70;99.90;;;;;;5107659;28;20204;-70
2021/06/26 04:27:25;;;;;;;9.43;8.55;;;21.70;99.90;;;;;;5102050;28;20557;-70
2021/06/26 04:29:52;;;;;;;10.23;9.32;;;21.70;99.90;;;;;;5091201;28;20202;-71
2021/06/26 04:32:21;;;;;;;9.75;8.95;;;21.70;99.90;;;;;;5099337;28;20200;-71
2021/06/26 04:34:48;;;;;;;10.70;9.80;;;21.70;99.90;;;;;;5098249;28;20224;-71
2021/06/26 04:37:14;;;;;;;9.48;8.68;;;21.70;99.90;;;;;;5099530;28;20234;-70
2021/06/26 04:39:41;;;;;;;10.52;9.52;;;21.70;99.90;;;;;;5099612;28;20625;-71
2021/06/26 04:42:08;;;;;;;10.75;9.75;;;21.70;99.90;;;;;;5100578;28;20564;-71
2021/06/26 04:44:35;;;;;;;10.63;9.70;;;21.70;99.90;;;;;;5098939;28;20216;-71
2021/06/26 04:47:02;;;;;;;10.85;9.85;;;21.70;99.90;;;;;;5091777;28;20545;-70
2021/06/26 04:49:30;;;;;;;11.45;10.50;;;21.70;99.90;;;;;;5100194;28;20207;-70
2021/06/26 04:51:57;;;;;;;10.68;9.57;;;21.70;99.90;;;;;;5096959;28;20228;-70
2021/06/26 04:54:24;;;;;;;11.45;10.45;;;21.70;99.90;;;;;;5097424;28;20193;-71
2021/06/26 04:56:51;;;;;;;9.98;9.07;;;21.70;99.90;;;;;;5092087;28;20198;-70
2021/06/26 04:59:17;;;;;;;11.43;10.50;;;21.70;99.90;;;;;;5093174;28;20899;-71
2021/06/26 05:01:44;;;;;;;12.15;11.05;;;21.70;99.90;;;;;;5095542;28;20193;-70
2021/06/26 05:04:11;;;;;;;13.80;12.60;;;21.60;99.90;;;;;;5100477;28;20197;-70
2021/06/26 05:06:39;;;;;;;12.00;10.32;;;21.60;99.90;;;;;;5092849;28;20220;-70
2021/06/26 05:09:06;;;;;;;10.63;9.77;;;21.60;99.90;;;;;;5095419;28;20197;-70
2021/06/26 05:11:33;;;;;;;10.45;9.65;;;21.60;99.90;;;;;;5102397;28;20212;-70
2021/06/26 05:13:59;;;;;;;12.70;11.65;;;21.60;99.90;;;;;;5102775;28;20196;-70
2021/06/26 05:16:26;;;;;;;10.15;9.25;;;21.60;99.90;;;;;;5100563;28;20198;-70
2021/06/26 05:18:53;;;;;;;11.43;10.50;;;21.70;99.90;;;;;;5100507;28;20588;-70
2021/06/26 05:21:20;;;;;;;12.75;11.55;;;21.60;99.90;;;;;;5107259;28;20196;-69
2021/06/26 05:23:48;;;;;;;12.65;11.35;;;21.60;99.90;;;;;;5100040;28;20205;-70
2021/06/26 05:26:14;;;;;;;12.57;11.40;;;21.70;99.90;;;;;;5102906;28;20249;-70
2021/06/26 05:28:41;;;;;;;12.60;11.50;;;21.70;99.90;;;;;;5113175;28;20221;-70
2021/06/26 05:31:08;;;;;;;11.07;10.07;;;21.70;99.90;;;;;;5106370;28;20201;-70
2021/06/26 05:33:35;;;;;;;10.73;9.60;;;21.70;99.90;;;;;;5099502;28;20208;-70
2021/06/26 05:36:01;;;;;;;12.20;11.10;;;21.80;99.90;;;;;;5096396;28;20197;-70
2021/06/26 05:38:28;;;;;;;12.82;11.73;;;21.90;99.90;;;;;;5095781;28;20206;-70
2021/06/26 05:40:56;;;;;;;10.77;9.98;;;21.90;99.90;;;;;;5103733;28;20201;-71
2021/06/26 05:43:23;;;;;;;12.88;11.57;;;22.00;99.90;;;;;;5107250;28;20196;-70
2021/06/26 05:45:50;;;;;;;19.60;12.68;;;22.10;99.90;;;;;;5105503;28;20201;-71
2021/06/26 05:48:16;;;;;;;12.20;11.10;;;22.10;99.90;;;;;;5099589;28;20692;-70
2021/06/26 05:50:43;;;;;;;11.75;10.65;;;22.20;99.90;;;;;;5096205;28;20214;-70
2021/06/26 05:53:10;;;;;;;11.48;10.48;;;22.30;99.90;;;;;;5097885;28;20200;-70
2021/06/26 05:55:37;;;;;;;10.43;9.52;;;22.40;99.90;;;;;;5097371;28;20204;-70
2021/06/26 05:58:05;;;;;;;11.75;10.85;;;22.40;99.90;;;;;;5106153;28;20225;-70
2021/06/26 06:00:33;;;;;;;11.93;10.82;;;22.50;99.90;;;;;;5095957;28;20531;-70
2021/06/26 06:03:02;;;;;;;11.93;10.83;;;22.50;99.90;;;;;;5093447;28;20205;-70
2021/06/26 06:05:29;;;;;;;12.77;11.55;;;22.60;99.90;;;;;;5098274;28;20454;-70
2021/06/26 06:07:56;;;;;;;12.15;11.05;;;22.70;99.90;;;;;;5098102;28;20216;-70
2021/06/26 06:10:24;;;;;;;11.90;10.80;;;22.70;99.90;;;;;;5106423;28;20809;-69
2021/06/26 06:12:50;;;;;;;11.00;10.00;;;22.70;99.90;;;;;;5107648;28;20552;-70
2021/06/26 06:15:19;;;;;;;12.97;11.67;;;22.70;99.90;;;;;;5108637;28;20926;-69
2021/06/26 06:17:45;;;;;;;11.85;10.68;;;22.70;99.90;;;;;;5101143;28;20453;-69
2021/06/26 06:20:13;;;;;;;12.40;11.30;;;22.70;99.90;;;;;;5103850;28;20196;-69
2021/06/26 06:22:40;;;;;;;12.10;10.90;;;22.70;99.90;;;;;;5095489;28;20193;-69
2021/06/26 06:25:10;;;;;;;13.20;11.85;;;22.80;99.90;;;;;;5100344;28;20197;-69
2021/06/26 06:27:40;;;;;;;12.85;11.70;;;22.80;99.90;;;;;;5097663;28;20233;-70
2021/06/26 06:30:08;;;;;;;12.30;11.10;;;22.80;99.90;;;;;;5098328;28;20690;-69
2021/06/26 06:32:36;;;;;;;11.05;10.00;;;23.00;99.90;;;;;;5101580;28;20448;-69
2021/06/26 06:35:04;;;;;;;11.53;10.67;;;23.00;99.90;;;;;;5096066;28;20208;-70
2021/06/26 06:37:30;;;;;;;14.68;12.18;;;23.10;99.90;;;;;;5094104;28;20455;-70
2021/06/26 06:39:57;;;;;;;12.07;10.87;;;23.10;99.90;;;;;;5099910;28;20200;-70
2021/06/26 06:42:24;;;;;;;11.63;10.63;;;23.20;99.90;;;;;;5100358;28;20454;-70
2021/06/26 06:44:50;;;;;;;11.67;10.67;;;23.10;99.90;;;;;;5104611;28;20942;-70
2021/06/26 06:47:17;;;;;;;10.80;9.90;;;23.10;99.90;;;;;;5093597;28;20471;-70
2021/06/26 06:49:45;;;;;;;12.63;11.43;;;23.00;99.90;;;;;;5093913;28;20455;-70
2021/06/26 06:52:12;;;;;;;12.32;11.32;;;23.10;99.90;;;;;;5107160;28;20469;-70
2021/06/26 06:54:39;;;;;;;12.73;11.63;;;23.10;99.90;;;;;;5103047;28;20196;-71
2021/06/26 06:57:06;;;;;;;11.70;10.60;;;23.30;99.90;;;;;;5098212;28;20497;-70
2021/06/26 06:59:33;;;;;;;11.70;10.70;;;23.40;99.90;;;;;;5094689;28;20451;-70
2021/06/26 07:01:59;;;;;;;12.60;11.50;;;23.50;99.90;;;;;;5094403;28;21042;-71
2021/06/26 07:04:26;;;;;;;12.80;11.43;;;23.70;99.90;;;;;;5092731;28;20446;-70
2021/06/26 07:06:55;;;;;;;13.57;12.17;;;23.90;99.80;;;;;;5092335;28;20982;-70
2021/06/26 07:09:22;;;;;;;10.90;9.85;;;24.00;99.20;;;;;;5093383;28;20436;-70
2021/06/26 07:11:49;;;;;;;11.40;10.43;;;24.10;98.80;;;;;;5102929;28;20647;-70
2021/06/26 07:14:15;;;;;;;11.63;10.63;;;24.20;98.40;;;;;;5103569;28;20493;-70
2021/06/26 07:16:42;;;;;;;11.93;10.93;;;24.20;98.40;;;;;;5092838;28;20463;-70
2021/06/26 07:19:09;;;;;;;11.10;10.10;;;24.30;98.20;;;;;;5097502;28;20451;-69
2021/06/26 07:21:35;;;;;;;11.93;10.83;;;24.30;98.10;;;;;;5105796;28;20462;-70
2021/06/26 07:24:04;;;;;;;11.33;10.40;;;24.30;97.90;;;;;;5101455;28;20465;-70
2021/06/26 07:26:31;;;;;;;10.83;9.93;;;24.40;97.70;;;;;;5101142;27;20900;-70
2021/06/26 07:28:57;;;;;;;11.40;10.40;;;24.50;97.50;;;;;;5100255;28;20478;-70
2021/06/26 07:31:24;;;;;;;10.90;9.80;;;24.60;97.20;;;;;;5104960;28;20462;-70
2021/06/26 07:33:51;;;;;;;10.80;9.90;;;24.70;96.80;;;;;;5104133;28;20463;-70
2021/06/26 07:36:18;;;;;;;9.83;8.93;;;24.80;96.50;;;;;;5099546;28;20455;-71
2021/06/26 07:38:44;;;;;;;12.00;11.00;;;25.00;96.20;;;;;;5096379;28;20811;-70
2021/06/26 07:41:13;;;;;;;9.57;8.77;;;25.10;95.70;;;;;;5097296;28;20463;-70
2021/06/26 07:43:39;;;;;;;10.23;9.40;;;25.20;95.30;;;;;;5101082;28;20454;-69
2021/06/26 07:46:07;;;;;;;8.73;8.00;;;25.30;95.10;;;;;;5098909;28;20458;-70
2021/06/26 07:48:34;;;;;;;10.13;9.33;;;25.40;94.80;;;;;;5098417;28;20561;-70
2021/06/26 07:51:00;;;;;;;9.10;8.20;;;25.50;94.30;;;;;;5108107;28;20919;-70
2021/06/26 07:53:27;;;;;;;8.83;8.03;;;25.50;94.10;;;;;;5103802;28;20457;-70
2021/06/26 07:55:54;;;;;;;8.27;7.53;;;25.60;93.70;;;;;;5101130;28;20458;-69
2021/06/26 07:58:24;;;;;;;9.97;8.50;;;25.70;93.50;;;;;;5101116;28;20566;-69
2021/06/26 08:00:51;;;;;;;9.17;8.37;;;25.70;93.10;;;;;;5097170;28;20913;-69
2021/06/26 08:03:18;;;;;;;8.53;7.77;;;25.80;93.10;;;;;;5091956;28;20465;-69
2021/06/26 08:05:46;;;;;;;9.20;8.40;;;25.90;93.00;;;;;;5099155;28;20881;-69
2021/06/26 08:08:13;;;;;;;9.10;8.35;;;26.00;92.80;;;;;;5095311;28;20475;-69
2021/06/26 08:10:41;;;;;;;9.73;8.73;;;26.00;92.60;;;;;;5097315;28;20207;-70
2021/06/26 08:13:09;;;;;;;7.10;6.50;;;26.10;92.40;;;;;;5104495;28;20455;-70
2021/06/26 08:15:38;;;;;;;8.90;8.20;;;26.10;92.40;;;;;;5110156;28;20486;-69
2021/06/26 08:18:05;;;;;;;8.23;7.53;;;26.20;92.40;;;;;;5112133;28;20442;-70
2021/06/26 08:20:32;;;;;;;8.97;8.17;;;26.20;92.00;;;;;;5111671;28;20910;-70
2021/06/26 08:22:58;;;;;;;8.50;7.80;;;26.30;91.50;;;;;;5111773;28;20873;-69
2021/06/26 08:25:26;;;;;;;9.00;8.17;;;26.30;91.90;;;;;;5100916;28;20463;-69
2021/06/26 08:27:52;;;;;;;8.50;7.80;;;26.20;91.50;;;;;;5097580;28;20488;-70
2021/06/26 08:30:20;;;;;;;8.13;7.43;;;26.20;91.80;;;;;;5103152;28;20438;-70
2021/06/26 08:32:48;;;;;;;8.13;7.43;;;26.10;91.70;;;;;;5111550;28;20442;-70
2021/06/26 08:35:15;;;;;;;8.17;7.57;;;26.10;91.80;;;;;;5102783;28;20459;-69
2021/06/26 08:37:44;;;;;;;8.17;7.37;;;26.20;91.70;;;;;;5096957;28;20445;-69
2021/06/26 08:40:12;;;;;;;9.13;8.30;;;26.20;91.50;;;;;;5112112;28;20458;-70
2021/06/26 08:42:40;;;;;;;8.10;7.30;;;26.30;91.50;;;;;;5110867;28;20458;-70
2021/06/26 08:45:08;;;;;;;7.07;6.47;;;26.30;91.70;;;;;;5098748;28;20470;-69
2021/06/26 08:47:35;;;;;;;8.23;7.60;;;26.40;91.20;;;;;;5104452;28;20450;-70
2021/06/26 08:50:04;;;;;;;8.53;7.83;;;26.40;91.00;;;;;;5111433;28;20466;-70
2021/06/26 08:52:30;;;;;;;7.87;7.07;;;26.50;90.90;;;;;;5101574;28;20475;-69
2021/06/26 08:54:57;;;;;;;8.20;7.43;;;26.50;90.70;;;;;;5106652;28;20466;-70
2021/06/26 08:57:28;;;;;;;6.83;6.23;;;26.60;90.40;;;;;;5110000;28;20490;-73
2021/06/26 08:59:55;;;;;;;7.37;6.67;;;26.60;90.50;;;;;;5112106;28;20435;-74
2021/06/26 09:02:23;;;;;;;6.77;6.17;;;26.70;90.60;;;;;;5107222;28;20462;-69
2021/06/26 09:04:50;;;;;;;7.33;6.73;;;26.70;90.00;;;;;;5107404;28;20799;-70
2021/06/26 09:07:28;;;;;;;6.33;5.73;;;26.70;86.70;;;;;;5105620;28;20465;-70
2021/06/26 09:09:56;;;;;;;6.17;5.67;;;26.70;89.10;;;;;;5111688;28;20463;-70
2021/06/26 09:12:24;;;;;;;6.53;6.03;;;26.70;87.90;;;;;;5100389;28;20816;-69
2021/06/26 09:14:51;;;;;;;5.93;5.43;;;26.80;89.40;;;;;;5107165;28;20439;-70
2021/06/26 09:17:18;;;;;;;5.93;5.50;;;26.80;88.30;;;;;;5111114;28;20442;-69
2021/06/26 09:19:54;;;;;;;6.60;6.10;;;26.80;89.10;;;;;;5107980;28;20236;-69
2021/06/26 09:22:21;;;;;;;7.00;6.40;;;26.90;87.10;;;;;;5095155;28;20929;-70
2021/06/26 09:24:51;;;;;;;6.77;6.27;;;26.90;87.10;;;;;;5108328;28;20453;-69
2021/06/26 09:27:20;;;;;;;6.05;5.55;;;26.90;85.60;;;;;;5110158;28;20473;-69
2021/06/26 09:29:51;;;;;;;6.13;5.60;;;26.90;87.00;;;;;;5098558;28;20224;-70
2021/06/26 09:32:23;;;;;;;5.60;5.13;;;26.90;87.10;;;;;;5095124;28;20464;-70
2021/06/26 09:34:50;;;;;;;5.60;5.17;;;26.90;85.90;;;;;;5090660;28;20431;-70
2021/06/26 09:37:21;;;;;;;8.80;6.60;;;26.90;87.00;;;;;;5098724;28;20455;-69
2021/06/26 09:39:52;;;;;;;6.90;6.30;;;26.90;86.80;;;;;;5111013;28;20862;-69
2021/06/26 09:42:20;;;;;;;5.73;5.23;;;26.90;86.30;;;;;;5107998;28;20441;-69
2021/06/26 09:44:52;;;;;;;5.83;5.40;;;26.90;86.20;;;;;;5097015;28;20439;-69
2021/06/26 09:47:38;;;;;;;5.37;4.97;;;26.80;86.70;;;;;;5090219;28;20455;-69
2021/06/26 09:50:14;;;;;;;6.63;6.13;;;26.80;86.80;;;;;;5092101;28;20954;-70
2021/06/26 09:52:46;;;;;;;5.83;5.33;;;26.80;84.70;;;;;;5102392;28;20458;-69
2021/06/26 09:55:18;;;;;;;5.85;5.35;;;26.80;85.10;;;;;;5090736;28;20459;-70
2021/06/26 09:57:45;;;;;;;5.63;5.20;;;26.80;85.40;;;;;;5091101;28;20253;-69
2021/06/26 10:00:13;;;;;;;6.20;5.60;;;26.80;85.10;;;;;;5091121;28;20440;-69
2021/06/26 10:02:40;;;;;;;5.77;5.30;;;26.80;85.90;;;;;;5097960;28;20761;-69
2021/06/26 10:05:08;;;;;;;6.00;5.43;;;26.80;85.70;;;;;;5090209;28;20456;-69
2021/06/26 10:07:38;;;;;;;5.83;5.43;;;26.80;84.60;;;;;;5090808;28;20600;-69
2021/06/26 10:10:06;;;;;;;5.90;5.50;;;26.80;84.50;;;;;;5094218;28;20486;-70
2021/06/26 10:12:35;;;;;;;6.37;5.60;;;26.80;83.80;;;;;;5092184;28;20200;-69
2021/06/26 10:15:02;;;;;;;5.67;5.17;;;26.70;84.00;;;;;;5095116;28;20972;-71
2021/06/26 10:17:30;;;;;;;6.40;5.90;;;26.70;85.00;;;;;;5114354;28;20446;-69
2021/06/26 10:19:57;;;;;;;6.20;5.70;;;26.60;85.00;;;;;;5109070;28;20459;-70
2021/06/26 10:22:24;;;;;;;6.80;6.27;;;26.60;84.30;;;;;;5094201;28;20461;-70
2021/06/26 10:24:52;;;;;;;6.45;5.95;;;26.60;84.40;;;;;;5094461;28;20442;-69
2021/06/26 10:27:20;;;;;;;6.83;6.23;;;26.60;83.70;;;;;;5100601;28;20202;-69
2021/06/26 10:29:48;;;;;;;5.80;5.40;;;26.60;82.20;;;;;;5089125;28;20834;-69
2021/06/26 10:32:17;;;;;;;5.40;4.90;;;26.60;82.40;;;;;;5105549;28;20771;-68
2021/06/26 10:34:45;;;;;;;5.27;4.87;;;26.60;82.00;;;;;;5108792;28;20448;-69
2021/06/26 10:37:17;;;;;;;7.40;5.10;;;26.60;82.90;;;;;;5113493;28;20533;-69
2021/06/26 10:39:44;;;;;;;6.10;5.60;;;26.60;83.70;;;;;;5112797;28;20439;-68
2021/06/26 10:42:12;;;;;;;5.83;5.43;;;26.60;85.00;;;;;;5110625;28;20907;-69
2021/06/26 10:44:44;;;;;;;6.63;6.03;;;26.60;83.70;;;;;;5105629;28;20458;-69
2021/06/26 10:47:13;;;;;;;6.20;5.63;;;26.60;82.50;;;;;;5097619;28;20486;-69
2021/06/26 10:49:40;;;;;;;5.30;4.80;;;26.60;81.40;;;;;;5102245;28;20482;-69
2021/06/26 10:52:13;;;;;;;5.17;4.77;;;26.60;82.20;;;;;;5095360;28;20467;-69
2021/06/26 10:54:51;;;;;;;6.53;5.93;;;26.50;80.80;;;;;;5093947;28;20478;-69
2021/06/26 10:57:17;;;;;;;5.73;5.27;;;26.50;81.80;;;;;;5093347;28;20954;-70
2021/06/26 10:59:58;;;;;;;6.33;5.83;;;26.50;82.50;;;;;;5108895;28;20422;-69
2021/06/26 11:02:38;;;;;;;5.27;4.87;;;26.50;82.10;;;;;;5104379;28;20461;-69
2021/06/26 11:05:05;;;;;;;8.10;5.55;;;26.50;82.70;;;;;;5093848;28;20881;-69
2021/06/26 11:07:34;;;;;;;6.17;5.67;;;26.50;81.70;;;;;;5103457;28;20207;-69
2021/06/26 11:10:07;;;;;;;5.70;5.20;;;26.50;83.50;;;;;;5097371;28;20606;-69
2021/06/26 11:12:38;;;;;;;5.60;5.10;;;26.50;83.30;;;;;;5101094;28;20190;-70
2021/06/26 11:15:06;;;;;;;4.90;4.57;;;26.60;82.10;;;;;;5101001;28;20463;-69
2021/06/26 11:17:37;;;;;;;5.07;4.77;;;26.60;81.90;;;;;;5111343;28;20475;-69
2021/06/26 11:20:05;;;;;;;5.87;5.37;;;26.60;81.40;;;;;;5094815;28;20803;-69
2021/06/26 11:22:32;;;;;;;5.27;4.87;;;26.60;81.00;;;;;;5100878;28;20449;-69
2021/06/26 11:24:58;;;;;;;5.90;5.43;;;26.60;80.00;;;;;;5111559;28;20441;-69
2021/06/26 11:27:25;;;;;;;6.10;5.50;;;26.60;80.90;;;;;;5109370;28;20771;-69
2021/06/26 11:29:59;;;;;;;5.33;4.83;;;26.60;80.90;;;;;;5107433;28;20486;-69
2021/06/26 11:32:27;;;;;;;5.60;5.10;;;26.60;80.30;;;;;;5092634;28;20943;-69
2021/06/26 11:34:57;;;;;;;5.27;4.87;;;26.60;81.60;;;;;;5097507;28;20448;-68
2021/06/26 11:37:31;;;;;;;6.63;5.63;;;26.60;79.30;;;;;;5102603;28;20461;-69
2021/06/26 11:39:58;;;;;;;5.33;4.93;;;26.60;81.00;;;;;;5100696;28;20459;-69
2021/06/26 11:42:26;;;;;;;4.93;4.43;;;26.60;80.70;;;;;;5113668;28;20468;-69
2021/06/26 11:44:53;;;;;;;5.37;4.87;;;26.60;80.60;;;;;;5113083;28;20831;-69
2021/06/26 11:47:28;;;;;;;5.50;5.10;;;26.60;80.60;;;;;;5106852;28;20905;-68
2021/06/26 11:49:56;;;;;;;5.10;4.70;;;26.60;79.80;;;;;;5100253;27;20477;-69
2021/06/26 11:52:33;;;;;;;4.80;4.40;;;26.50;80.10;;;;;;5092974;28;20457;-68
2021/06/26 11:55:00;;;;;;;6.32;5.80;;;26.50;81.90;;;;;;5110974;28;20457;-68
2021/06/26 11:57:30;;;;;;;4.83;4.33;;;26.50;81.50;;;;;;5101914;28;20740;-68
2021/06/26 11:59:56;;;;;;;5.10;4.70;;;26.50;80.30;;;;;;5112993;28;20519;-68
2021/06/26 12:02:30;;;;;;;4.77;4.47;;;26.50;81.50;;;;;;5110296;28;20206;-68
2021/06/26 12:04:58;;;;;;;5.57;5.17;;;26.50;82.30;;;;;;5109430;28;20549;-69
2021/06/26 12:07:33;;;;;;;5.33;4.83;;;26.50;80.90;;;;;;5091940;28;20933;-69
2021/06/26 12:10:01;;;;;;;6.00;5.50;;;26.50;82.00;;;;;;5092162;28;20938;-69
2021/06/26 12:12:33;;;;;;;6.23;5.70;;;26.50;81.70;;;;;;5101822;28;20472;-69
2021/06/26 12:15:00;;;;;;;5.60;5.20;;;26.50;81.70;;;;;;5102133;28;20454;-68
2021/06/26 12:17:26;;;;;;;5.80;5.17;;;26.50;81.80;;;;;;5106594;28;20457;-69
2021/06/26 12:20:02;;;;;;;5.40;5.00;;;26.50;80.60;;;;;;5092522;28;20464;-69
2021/06/26 12:22:30;;;;;;;5.70;5.20;;;26.50;81.30;;;;;;5091894;28;20439;-69
2021/06/26 12:25:06;;;;;;;7.13;6.50;;;26.50;81.80;;;;;;5091857;28;20205;-69
2021/06/26 12:27:33;;;;;;;5.53;5.13;;;26.50;81.30;;;;;;5091749;28;20962;-69
2021/06/26 12:30:02;;;;;;;5.07;4.67;;;26.50;81.40;;;;;;5097279;28;20519;-69
2021/06/26 12:32:31;;;;;;;5.40;4.90;;;26.50;81.30;;;;;;5101947;28;20943;-69
2021/06/26 12:34:58;;;;;;;6.73;5.33;;;26.50;81.70;;;;;;5112388;28;20457;-69
2021/06/26 12:37:31;;;;;;;5.83;5.33;;;26.50;81.50;;;;;;5103978;28;20461;-69
2021/06/26 12:40:13;;;;;;;5.20;4.80;;;26.50;81.80;;;;;;5107256;28;20427;-69
2021/06/26 12:42:53;;;;;;;5.33;4.93;;;26.50;82.10;;;;;;5101518;28;20444;-70
2021/06/26 12:45:25;;;;;;;4.77;4.40;;;26.50;82.50;;;;;;5108364;28;20445;-69
2021/06/26 12:48:01;;;;;;;5.33;4.90;;;26.50;82.20;;;;;;5099588;28;20465;-69